createdAt,value
2022-07-25T00:01:54.475Z,98670.72
2022-07-25T00:04:21.398Z,98666.88
2022-07-25T00:06:48.962Z,98663.03
2022-07-25T00:09:16.706Z,98659.03
2022-07-25T00:11:46.261Z,98653.25
2022-07-25T00:14:12.913Z,98644.06
2022-07-25T00:16:40.088Z,98639.72
2022-07-25T00:19:06.757Z,98633.34
2022-07-25T00:21:33.345Z,98641.56
2022-07-25T00:23:59.954Z,98633.34
2022-07-25T00:26:26.528Z,98624.13
2022-07-25T00:28:53.071Z,98625.84
2022-07-25T00:31:19.731Z,98622.19
2022-07-25T00:33:46.333Z,98623.16
2022-07-25T00:36:14.789Z,98631.94
2022-07-25T00:38:41.426Z,98624.88
2022-07-25T00:41:08.610Z,98626.91
2022-07-25T00:43:35.175Z,98618.97
2022-07-25T00:46:02.046Z,98617.31
2022-07-25T00:48:30.107Z,98617.50
2022-07-25T00:50:57.021Z,98619.78
2022-07-25T00:53:24.620Z,98616.50
2022-07-25T00:55:51.956Z,98614.94
2022-07-25T00:58:18.900Z,98616.47
2022-07-25T01:00:54.601Z,98607.72
2022-07-25T01:03:21.162Z,98606.28
2022-07-25T01:05:53.093Z,98607.47
2022-07-25T01:08:24.092Z,98598.78
2022-07-25T01:10:50.674Z,98593.50
2022-07-25T01:13:19.855Z,98597.38
2022-07-25T01:15:47.707Z,98591.63
2022-07-25T01:18:14.376Z,98591.13
2022-07-25T01:20:43.825Z,98580.47
2022-07-25T01:23:10.426Z,98586.41
2022-07-25T01:25:37.110Z,98583.25
2022-07-25T01:28:03.912Z,98578.56
2022-07-25T01:30:40.106Z,98575.59
2022-07-25T01:33:07.316Z,98573.50
2022-07-25T01:35:41.529Z,98573.34
2022-07-25T01:38:13.450Z,98568.38
2022-07-25T01:40:40.691Z,98569.59
2022-07-25T01:43:08.097Z,98573.88
2022-07-25T01:45:34.680Z,98565.50
2022-07-25T01:48:01.237Z,98563.34
2022-07-25T01:50:30.632Z,98564.78
2022-07-25T01:52:58.525Z,98557.38
2022-07-25T01:55:25.176Z,98559.22
2022-07-25T01:57:53.060Z,98554.88
2022-07-25T02:00:19.895Z,98547.13
2022-07-25T02:03:09.755Z,98553.25
2022-07-25T02:05:36.416Z,98547.31
2022-07-25T02:08:03.369Z,98535.56
2022-07-25T02:10:29.914Z,98547.19
2022-07-25T02:12:56.394Z,98543.38
2022-07-25T02:15:23.152Z,98544.25
2022-07-25T02:17:49.710Z,98539.91
2022-07-25T02:20:16.255Z,98539.16
2022-07-25T02:22:42.783Z,98538.09
2022-07-25T02:25:12.336Z,98535.69
2022-07-25T02:27:38.866Z,98537.03
2022-07-25T02:30:06.175Z,98529.53
2022-07-25T02:32:32.694Z,98526.53
2022-07-25T02:34:59.267Z,98523.25
2022-07-25T02:37:25.820Z,98526.25
2022-07-25T02:39:52.418Z,98531.03
2022-07-25T02:42:18.911Z,98520.47
2022-07-25T02:44:45.513Z,98524.00
2022-07-25T02:47:12.100Z,98516.78
2022-07-25T02:49:38.629Z,98526.13
2022-07-25T02:52:05.523Z,98512.97
2022-07-25T02:54:32.438Z,98509.22
2022-07-25T02:56:59.018Z,98504.75
2022-07-25T02:59:25.531Z,98499.50
2022-07-25T03:01:58.896Z,98498.06
2022-07-25T03:04:25.553Z,98495.38
2022-07-25T03:06:52.286Z,98495.97
2022-07-25T03:09:19.288Z,98489.59
2022-07-25T03:11:45.858Z,98486.16
2022-07-25T03:14:12.385Z,98483.56
2022-07-25T03:16:39.277Z,98472.69
2022-07-25T03:19:10.230Z,98477.94
2022-07-25T03:21:39.735Z,98464.47
2022-07-25T03:24:06.997Z,98471.19
2022-07-25T03:26:33.850Z,98466.19
2022-07-25T03:29:00.374Z,98468.47
2022-07-25T03:31:26.942Z,98462.91
2022-07-25T03:33:53.517Z,98458.94
2022-07-25T03:36:20.044Z,98459.47
2022-07-25T03:38:46.656Z,98457.31
2022-07-25T03:41:13.618Z,98455.22
2022-07-25T03:43:40.409Z,98452.34
2022-07-25T03:46:07.030Z,98446.88
2022-07-25T03:48:33.862Z,98448.25
2022-07-25T03:51:06.400Z,98442.09
2022-07-25T03:53:33.135Z,98440.34
2022-07-25T03:55:59.679Z,98435.63
2022-07-25T03:58:26.289Z,98433.03
2022-07-25T04:00:52.877Z,98434.78
2022-07-25T04:03:19.707Z,98423.97
2022-07-25T04:05:47.698Z,98421.72
2022-07-25T04:08:14.730Z,98429.91
2022-07-25T04:10:41.253Z,98424.94
2022-07-25T04:13:09.772Z,98431.16
2022-07-25T04:15:36.422Z,98428.44
2022-07-25T04:18:02.965Z,98422.09
2022-07-25T04:20:29.550Z,98426.59
2022-07-25T04:22:56.131Z,98423.00
2022-07-25T04:25:22.753Z,98425.44
2022-07-25T04:27:49.285Z,98419.94
2022-07-25T04:30:23.966Z,98422.06
2022-07-25T04:32:51.636Z,98406.22
2022-07-25T04:35:18.227Z,98415.06
2022-07-25T04:37:44.765Z,98404.75
2022-07-25T04:40:11.857Z,98404.13
2022-07-25T04:42:38.441Z,98398.13
2022-07-25T04:45:05.344Z,98406.56
2022-07-25T04:47:31.955Z,98401.34
2022-07-25T04:49:58.559Z,98398.38
2022-07-25T04:52:25.136Z,98408.31
2022-07-25T04:54:51.667Z,98403.88
2022-07-25T04:57:18.663Z,98393.72
2022-07-25T04:59:45.233Z,98385.16
2022-07-25T05:02:11.854Z,98377.88
2022-07-25T05:04:45.159Z,98372.28
2022-07-25T05:07:12.154Z,98363.75
2022-07-25T05:09:38.961Z,98364.63
2022-07-25T05:12:05.709Z,98358.91
2022-07-25T05:14:32.268Z,98360.94
2022-07-25T05:16:58.872Z,98358.44
2022-07-25T05:19:26.047Z,98351.31
2022-07-25T05:21:53.301Z,98351.50
2022-07-25T05:24:19.895Z,98354.41
2022-07-25T05:26:46.925Z,98354.19
2022-07-25T05:29:13.476Z,98347.53
2022-07-25T05:31:40.283Z,98350.41
2022-07-25T05:34:07.397Z,98344.53
2022-07-25T05:36:34.429Z,98337.75
2022-07-25T05:39:01.343Z,98340.16
2022-07-25T05:41:28.036Z,98337.56
2022-07-25T05:43:54.738Z,98336.00
2022-07-25T05:46:21.316Z,98336.19
2022-07-25T05:48:47.930Z,98323.63
2022-07-25T05:51:14.506Z,98335.63
2022-07-25T05:53:41.065Z,98325.28
2022-07-25T05:56:08.845Z,98324.97
2022-07-25T05:58:37.205Z,98322.22
2022-07-25T06:01:03.810Z,98320.91
2022-07-25T06:03:30.453Z,98319.63
2022-07-25T06:05:57.029Z,98318.13
2022-07-25T06:08:23.984Z,98314.56
2022-07-25T06:10:51.579Z,98315.22
2022-07-25T06:13:18.134Z,98322.47
2022-07-25T06:15:47.386Z,98311.63
2022-07-25T06:18:13.880Z,98310.13
2022-07-25T06:20:40.470Z,98313.78
2022-07-25T06:23:07.010Z,98305.53
2022-07-25T06:25:33.635Z,98298.34
2022-07-25T06:28:01.041Z,98299.44
2022-07-25T06:30:28.286Z,98294.03
2022-07-25T06:32:54.866Z,98293.66
2022-07-25T06:35:23.010Z,98285.72
2022-07-25T06:37:50.091Z,98292.13
2022-07-25T06:40:16.909Z,98292.75
2022-07-25T06:42:45.290Z,98287.13
2022-07-25T06:45:13.203Z,98274.22
2022-07-25T06:47:41.485Z,98283.50
2022-07-25T06:50:11.317Z,98277.22
2022-07-25T06:52:38.891Z,98275.66
2022-07-25T06:55:09.070Z,98273.97
2022-07-25T06:57:36.027Z,98273.03
2022-07-25T07:00:06.959Z,98268.53
2022-07-25T07:02:33.731Z,98268.75
2022-07-25T07:05:00.273Z,98273.19
2022-07-25T07:07:27.158Z,98271.69
2022-07-25T07:09:53.695Z,98272.44
2022-07-25T07:12:20.253Z,98260.97
2022-07-25T07:14:47.893Z,98262.22
2022-07-25T07:17:14.471Z,98261.50
2022-07-25T07:19:44.423Z,98254.56
2022-07-25T07:22:11.261Z,98259.91
2022-07-25T07:24:44.392Z,98262.28
2022-07-25T07:27:14.865Z,98252.00
2022-07-25T07:29:42.015Z,98250.28
2022-07-25T07:32:08.785Z,98245.63
2022-07-25T07:34:35.512Z,98254.72
2022-07-25T07:37:02.565Z,98238.44
2022-07-25T07:39:29.154Z,98246.63
2022-07-25T07:41:55.713Z,98235.47
2022-07-25T07:44:22.262Z,98239.06
2022-07-25T07:46:48.997Z,98226.31
2022-07-25T07:49:15.709Z,98229.53
2022-07-25T07:51:44.174Z,98228.00
2022-07-25T07:54:28.976Z,98233.31
2022-07-25T07:56:55.499Z,98223.25
2022-07-25T07:59:22.095Z,98228.53
2022-07-25T08:01:48.729Z,98224.84
2022-07-25T08:04:15.690Z,98223.88
2022-07-25T08:06:43.168Z,98219.16
2022-07-25T08:09:10.418Z,98222.53
2022-07-25T08:11:40.033Z,98209.13
2022-07-25T08:14:07.475Z,98205.03
2022-07-25T08:16:34.365Z,98204.25
2022-07-25T08:19:00.907Z,98204.34
2022-07-25T08:21:27.552Z,98199.19
2022-07-25T08:23:54.499Z,98198.50
2022-07-25T08:26:21.120Z,98197.50
2022-07-25T08:28:52.512Z,98192.34
2022-07-25T08:31:27.237Z,98189.47
2022-07-25T08:33:54.017Z,98192.88
